Time;durP1;ratioP1;P1;durP2;ratioP2;P2;SDS_P1;SDS_P2;PMS_P1;PMS_P2;Temp;Humidity;BMP_temperature;BMP_pressure;BME280_temperature;BME280_humidity;BME280_pressure;Samples;Min_cycle;Max_cycle;Signal;HPM_P1;HPM_P2
2023/09/19 00:00:38;;;;;;;0.10;0.10;;;;;;;16.43;70.96;100775.31;5084993;28;20036;-75
2023/09/19 00:03:05;;;;;;;0.10;0.10;;;;;;;16.43;70.82;100780.66;5092668;28;20036;-76
2023/09/19 00:05:36;;;;;;;0.10;0.10;;;;;;;16.48;70.62;100781.31;5087472;28;20036;-76
2023/09/19 00:08:04;;;;;;;0.10;0.10;;;;;;;16.48;70.11;100785.81;5085730;28;20477;-75
2023/09/19 00:10:31;;;;;;;0.10;0.10;;;;;;;16.52;70.15;100786.53;5088160;28;20537;-75
2023/09/19 00:12:59;;;;;;;0.10;0.10;;;;;;;16.57;70.08;100789.88;5088349;28;20024;-75
2023/09/19 00:15:28;;;;;;;0.10;0.10;;;;;;;16.61;70.02;100794.13;5089157;28;20056;-76
2023/09/19 00:17:55;;;;;;;0.10;0.10;;;;;;;16.62;69.40;100795.88;5088357;28;20036;-76
2023/09/19 00:20:23;;;;;;;0.10;0.10;;;;;;;16.66;69.16;100800.16;5088769;28;20035;-75
2023/09/19 00:22:53;;;;;;;0.10;0.10;;;;;;;16.66;68.71;100800.16;5088274;28;20419;-77
2023/09/19 00:25:20;;;;;;;0.10;0.10;;;;;;;16.71;68.70;100800.81;5087195;28;20032;-74
2023/09/19 00:27:51;;;;;;;0.10;0.10;;;;;;;16.63;67.33;100800.28;5083769;28;20054;-74
2023/09/19 00:30:21;;;;;;;0.10;0.10;;;;;;;16.68;66.98;100803.59;5087738;28;20028;-75
2023/09/19 00:32:48;;;;;;;0.10;0.10;;;;;;;16.66;65.77;100810.84;5091246;28;20119;-76
2023/09/19 00:35:15;;;;;;;0.10;0.10;;;;;;;16.73;66.06;100798.06;5088605;28;20042;-75
2023/09/19 00:37:42;;;;;;;0.10;0.10;;;;;;;16.73;66.31;100806.06;5087343;28;20024;-75
2023/09/19 00:40:11;;;;;;;0.10;0.10;;;;;;;16.71;66.32;100802.59;5088365;28;20089;-76
2023/09/19 00:42:39;;;;;;;0.00;0.00;;;;;;;16.72;67.10;100794.50;5086919;28;20039;-74
2023/09/19 00:45:09;;;;;;;0.10;0.10;;;;;;;16.68;67.26;100802.75;5088158;28;20028;-75
2023/09/19 00:47:36;;;;;;;0.10;0.10;;;;;;;16.66;67.09;100806.38;5088117;28;20032;-75
2023/09/19 00:50:07;;;;;;;0.10;0.10;;;;;;;16.68;67.06;100803.59;5097141;28;20032;-75
2023/09/19 00:52:36;;;;;;;0.10;0.10;;;;;;;16.70;67.16;100812.44;5096703;28;20028;-76
2023/09/19 00:55:03;;;;;;;1.65;1.27;;;;;;;16.66;66.99;100809.03;5090560;28;20032;-75
2023/09/19 00:57:33;;;;;;;0.10;0.10;;;;;;;16.56;65.33;100812.19;5091284;28;20035;-75
2023/09/19 01:00:00;;;;;;;0.10;0.10;;;;;;;16.55;64.16;100813.13;5093825;28;20027;-75
2023/09/19 01:02:28;;;;;;;0.10;0.10;;;;;;;16.55;64.82;100821.16;5091056;28;20390;-75
2023/09/19 01:04:55;;;;;;;0.10;0.10;;;;;;;16.48;63.80;100821.44;5094029;28;20035;-74
2023/09/19 01:07:22;;;;;;;0.10;0.10;;;;;;;16.43;63.90;100823.44;5101204;28;20055;-76
2023/09/19 01:09:49;;;;;;;0.10;0.10;;;;;;;16.38;63.25;100820.13;5106190;28;20544;-75
2023/09/19 01:12:23;;;;;;;0.10;0.10;;;;;;;16.36;63.54;100819.31;5093916;28;20024;-76
2023/09/19 01:14:59;;;;;;;0.10;0.10;;;;;;;16.37;62.79;100820.19;5092216;28;20035;-76
2023/09/19 01:17:30;;;;;;;0.10;0.10;;;;;;;16.24;62.22;100820.72;5093230;28;20043;-76
2023/09/19 01:20:12;;;;;;;0.10;0.10;;;;;;;16.32;62.86;100823.06;5091787;28;20066;-75
2023/09/19 01:23:01;;;;;;;0.10;0.10;;;;;;;16.30;62.68;100819.59;5092070;28;20048;-75
2023/09/19 01:25:51;;;;;;;0.10;0.10;;;;;;;16.28;62.38;100829.50;5082802;28;20025;-76
2023/09/19 01:28:43;;;;;;;1.20;1.10;;;;;;;16.32;63.10;100818.59;5091269;28;20028;-76
2023/09/19 01:31:12;;;;;;;0.10;0.10;;;;;;;16.37;63.16;100821.03;5091590;28;20035;-76
2023/09/19 01:34:00;;;;;;;0.10;0.10;;;;;;;16.47;63.13;100821.50;5087417;28;20024;-76
2023/09/19 01:36:29;;;;;;;0.10;0.10;;;;;;;16.36;63.46;100824.66;5086545;28;20031;-76
2023/09/19 01:38:58;;;;;;;0.10;0.10;;;;;;;16.42;63.65;100829.72;5091757;28;20389;-76
2023/09/19 01:41:33;;;;;;;0.10;0.10;;;;;;;16.44;63.87;100825.19;5091389;28;20029;-74
2023/09/19 01:44:03;;;;;;;0.13;0.13;;;;;;;16.45;63.89;100837.63;5091002;28;20028;-76
2023/09/19 01:46:35;;;;;;;0.10;0.10;;;;;;;16.49;64.16;100828.50;5090047;28;20035;-76
2023/09/19 01:52:06;;;;;;;0.10;0.10;;;;;;;16.60;63.66;100837.88;5102232;27;20406;-76
2023/09/19 01:54:41;;;;;;;0.10;0.10;;;;;;;16.64;63.78;100836.78;5078345;28;20118;-76
2023/09/19 01:57:22;;;;;;;0.10;0.10;;;;;;;16.58;63.99;100840.59;5084547;28;20020;-77
2023/09/19 01:59:56;;;;;;;0.10;0.10;;;;;;;16.61;63.99;100836.91;5087593;28;20020;-77
2023/09/19 02:02:24;;;;;;;1.60;1.50;;;;;;;16.52;63.80;100834.69;5094618;28;20081;-77
2023/09/19 02:04:51;;;;;;;0.10;0.10;;;;;;;16.42;63.86;100834.22;5095601;28;20032;-76
2023/09/19 02:07:17;;;;;;;0.10;0.10;;;;;;;16.44;64.15;100838.56;5083250;28;20049;-76
2023/09/19 02:09:43;;;;;;;0.10;0.10;;;;;;;16.44;63.21;100837.69;5086253;28;20040;-76
2023/09/19 02:12:10;;;;;;;0.10;0.10;;;;;;;16.55;63.28;100839.88;5087305;28;20439;-77
2023/09/19 02:14:36;;;;;;;0.10;0.10;;;;;;;16.45;63.34;100845.66;5085914;28;20107;-77
2023/09/19 02:17:07;;;;;;;1.67;1.58;;;;;;;16.33;63.24;100835.50;5084668;28;20101;-77
2023/09/19 02:19:33;;;;;;;0.20;0.20;;;;;;;16.42;63.08;100837.75;5085691;28;20025;-77
2023/09/19 02:22:03;;;;;;;0.10;0.10;;;;;;;16.45;62.96;100842.97;5093600;28;20032;-77
2023/09/19 02:24:29;;;;;;;3.85;2.50;;;;;;;16.42;63.20;100834.22;5088524;28;20434;-77
2023/09/19 02:26:55;;;;;;;0.10;0.10;;;;;;;16.40;62.51;100834.28;5091627;28;20089;-77
2023/09/19 02:29:22;;;;;;;0.10;0.10;;;;;;;16.41;62.29;100835.16;5086874;28;20362;-76
2023/09/19 02:31:48;;;;;;;0.00;0.00;;;;;;;16.38;62.75;100838.81;5085078;28;20467;-77
2023/09/19 02:34:16;;;;;;;0.10;0.10;;;;;;;16.42;62.84;100848.44;5079619;28;20032;-77
2023/09/19 02:36:44;;;;;;;0.10;0.10;;;;;;;16.31;62.38;100842.69;5086651;28;20032;-77
2023/09/19 02:39:11;;;;;;;0.10;0.10;;;;;;;16.24;61.61;100841.25;5086288;28;20169;-77
2023/09/19 02:41:37;;;;;;;0.10;0.10;;;;;;;16.30;61.84;100843.66;5087092;28;20020;-77
2023/09/19 02:44:07;;;;;;;0.10;0.10;;;;;;;16.33;61.69;100846.19;5092556;28;20035;-78
2023/09/19 02:46:33;;;;;;;0.10;0.10;;;;;;;16.39;62.20;100845.06;5084365;28;20047;-77
2023/09/19 02:48:59;;;;;;;2.45;1.55;;;;;;;16.30;62.29;100841.00;5089530;28;20051;-77
2023/09/19 02:51:25;;;;;;;0.25;0.25;;;;;;;16.32;62.42;100845.34;5086206;28;20028;-77
2023/09/19 02:53:53;;;;;;;14.98;1.05;;;;;;;16.36;62.50;100839.84;5084053;28;20086;-76
2023/09/19 02:56:19;;;;;;;0.60;0.60;;;;;;;16.28;62.65;100838.38;5088651;28;20025;-76
2023/09/19 02:58:45;;;;;;;0.20;0.20;;;;;;;16.30;63.00;100836.50;5078675;28;20108;-77
2023/09/19 03:01:12;;;;;;;0.25;0.25;;;;;;;16.25;63.28;100832.28;5087746;28;20021;-77
2023/09/19 03:03:39;;;;;;;0.20;0.20;;;;;;;16.21;63.45;100834.22;5074548;28;20033;-77
2023/09/19 03:06:08;;;;;;;0.10;0.10;;;;;;;16.22;63.49;100833.28;5079450;28;20090;-77
2023/09/19 03:08:36;;;;;;;0.10;0.10;;;;;;;16.20;64.04;100839.63;5081625;28;20052;-77
2023/09/19 03:11:07;;;;;;;0.10;0.10;;;;;;;16.23;64.05;100848.41;5080929;28;20028;-77
2023/09/19 03:13:33;;;;;;;0.10;0.10;;;;;;;16.21;64.32;100842.25;5081886;28;20040;-77
2023/09/19 03:16:00;;;;;;;0.10;0.10;;;;;;;16.13;64.58;100839.91;5077609;28;20845;-77
2023/09/19 03:18:26;;;;;;;0.10;0.10;;;;;;;16.22;64.99;100848.47;5075491;28;20025;-77
2023/09/19 03:20:55;;;;;;;0.10;0.10;;;;;;;16.24;65.02;100850.13;5080688;28;20059;-76
2023/09/19 03:23:21;;;;;;;0.10;0.10;;;;;;;16.15;65.00;100862.09;5073592;28;20052;-77
2023/09/19 03:25:48;;;;;;;0.10;0.10;;;;;;;16.12;65.46;100854.19;5073201;28;20028;-77
2023/09/19 03:28:16;;;;;;;0.10;0.10;;;;;;;16.22;64.90;100843.97;5078611;28;20055;-75
2023/09/19 03:30:42;;;;;;;0.10;0.10;;;;;;;16.17;65.16;100846.00;5082255;28;20111;-77
2023/09/19 03:33:08;;;;;;;0.15;0.15;;;;;;;16.25;64.86;100841.19;5071621;28;20051;-77
2023/09/19 03:35:34;;;;;;;0.28;0.28;;;;;;;16.28;65.15;100840.19;5070008;28;20784;-77
2023/09/19 03:38:00;;;;;;;0.25;0.25;;;;;;;16.25;64.94;100838.50;5064992;28;20086;-76
2023/09/19 03:40:26;;;;;;;0.15;0.15;;;;;;;16.22;64.63;100838.63;5066827;28;20028;-75
2023/09/19 03:42:52;;;;;;;2.83;1.55;;;;;;;16.24;64.70;100834.09;5072386;28;20054;-77
2023/09/19 03:45:19;;;;;;;0.10;0.10;;;;;;;16.25;65.13;100832.28;5071114;28;20021;-77
2023/09/19 03:47:47;;;;;;;0.10;0.10;;;;;;;16.17;64.74;100840.63;5070863;28;20067;-77
2023/09/19 03:50:17;;;;;;;0.40;0.40;;;;;;;16.11;64.77;100841.78;5071394;28;20401;-77
2023/09/19 03:52:44;;;;;;;0.20;0.20;;;;;;;16.13;64.70;100845.25;5070823;28;20037;-77
2023/09/19 03:55:10;;;;;;;0.20;0.20;;;;;;;16.09;64.36;100859.69;5072364;28;20469;-75
2023/09/19 03:57:37;;;;;;;0.15;0.15;;;;;;;16.04;64.39;100852.78;5061740;28;20406;-76
2023/09/19 04:00:11;;;;;;;0.10;0.10;;;;;;;16.02;64.19;100850.19;5068892;28;20031;-77
2023/09/19 04:02:38;;;;;;;0.10;0.10;;;;;;;16.03;64.12;100862.63;5067296;28;20075;-77
2023/09/19 04:05:04;;;;;;;0.10;0.10;;;;;;;15.91;64.69;100871.16;5070414;28;20045;-77
2023/09/19 04:07:30;;;;;;;2.13;1.27;;;;;;;16.00;64.61;100870.78;5066856;28;20040;-75
2023/09/19 04:09:56;;;;;;;0.10;0.10;;;;;;;16.05;64.18;100868.78;5067690;28;20033;-77
2023/09/19 04:12:22;;;;;;;0.10;0.10;;;;;;;15.97;64.83;100881.59;5066619;28;20040;-77
2023/09/19 04:14:50;;;;;;;0.10;0.10;;;;;;;16.01;65.00;100881.41;5067658;28;20086;-76
2023/09/19 04:17:16;;;;;;;0.10;0.10;;;;;;;16.07;64.86;100887.41;5061798;28;20089;-77
2023/09/19 04:19:42;;;;;;;0.43;0.30;;;;;;;16.08;65.13;100891.84;5064665;28;20043;-77
2023/09/19 04:22:09;;;;;;;0.10;0.10;;;;;;;16.12;64.86;100883.59;5068808;28;20162;-76
2023/09/19 04:24:35;;;;;;;0.10;0.10;;;;;;;16.07;65.11;100888.28;5071460;28;20107;-77
2023/09/19 04:27:01;;;;;;;3.53;0.95;;;;;;;16.02;65.35;100884.94;5072666;28;20039;-77
2023/09/19 04:29:29;;;;;;;0.10;0.10;;;;;;;16.05;65.16;100892.84;5071535;28;20035;-75
2023/09/19 04:31:56;;;;;;;7.47;1.98;;;;;;;16.13;65.27;100896.03;5071422;28;20120;-77
2023/09/19 04:34:24;;;;;;;0.10;0.10;;;;;;;16.11;65.34;100892.56;5071642;28;20028;-77
2023/09/19 04:36:50;;;;;;;0.10;0.10;;;;;;;16.13;65.16;100893.34;5072424;28;20017;-77
2023/09/19 04:39:17;;;;;;;0.10;0.10;;;;;;;16.09;65.16;100893.59;5076228;28;20047;-77
2023/09/19 04:41:47;;;;;;;0.10;0.10;;;;;;;16.10;65.39;100888.16;5076530;28;20490;-75
2023/09/19 04:44:13;;;;;;;0.10;0.10;;;;;;;16.04;65.67;100906.25;5069222;28;20032;-75
2023/09/19 04:46:39;;;;;;;0.10;0.10;;;;;;;16.12;65.36;100902.31;5069627;28;20088;-75
2023/09/19 04:49:05;;;;;;;0.10;0.10;;;;;;;15.97;65.75;100897.63;5067413;28;20025;-76
2023/09/19 04:51:34;;;;;;;0.10;0.10;;;;;;;15.99;65.80;100895.75;5069603;28;20028;-76
2023/09/19 04:54:01;;;;;;;0.10;0.10;;;;;;;15.97;66.28;100903.81;5070215;28;20091;-76
2023/09/19 04:56:28;;;;;;;0.10;0.10;;;;;;;15.99;66.46;100901.09;5073776;28;20028;-77
2023/09/19 04:58:54;;;;;;;0.77;0.77;;;;;;;16.04;66.25;100900.91;5069405;28;20051;-77
2023/09/19 05:01:22;;;;;;;0.10;0.10;;;;;;;16.06;66.05;100902.56;5071292;28;20101;-77
2023/09/19 05:03:52;;;;;;;0.10;0.10;;;;;;;16.00;66.39;100902.84;5067450;28;20063;-77
2023/09/19 05:06:21;;;;;;;0.10;0.10;;;;;;;16.09;65.93;100899.78;5066590;28;20108;-77
2023/09/19 05:08:52;;;;;;;0.40;0.40;;;;;;;16.10;66.25;100909.53;5064208;28;20085;-77
2023/09/19 05:11:21;;;;;;;0.25;0.25;;;;;;;16.13;66.15;100917.41;5068648;28;20124;-75
2023/09/19 05:13:49;;;;;;;0.13;0.13;;;;;;;16.19;65.83;100913.63;5071260;28;20031;-77
2023/09/19 05:16:16;;;;;;;0.10;0.10;;;;;;;16.14;65.63;100908.47;5062603;28;20055;-77
2023/09/19 05:18:42;;;;;;;0.10;0.10;;;;;;;16.21;65.84;100908.22;5064356;28;20043;-75
2023/09/19 05:21:08;;;;;;;0.10;0.10;;;;;;;16.15;65.79;100907.53;5069227;28;20025;-77
2023/09/19 05:23:34;;;;;;;0.10;0.10;;;;;;;16.18;65.64;100903.88;5073182;28;20078;-77
2023/09/19 05:26:01;;;;;;;0.10;0.10;;;;;;;16.24;65.54;100910.78;5073764;28;20029;-77
2023/09/19 05:28:27;;;;;;;0.10;0.10;;;;;;;16.25;65.40;100901.78;5082866;28;20566;-77
2023/09/19 05:30:54;;;;;;;0.38;0.38;;;;;;;16.18;65.75;100887.81;5075786;28;20037;-77
2023/09/19 05:33:20;;;;;;;0.10;0.10;;;;;;;16.19;65.63;100897.59;5070410;28;20059;-76
2023/09/19 05:35:48;;;;;;;0.10;0.10;;;;;;;16.15;65.65;100896.00;5078052;28;20490;-76
2023/09/19 05:38:18;;;;;;;0.20;0.20;;;;;;;16.17;65.76;100897.66;5068257;28;20051;-77
2023/09/19 05:40:46;;;;;;;0.13;0.13;;;;;;;16.24;65.79;100897.41;5070345;28;20024;-76
2023/09/19 05:43:14;;;;;;;0.10;0.10;;;;;;;16.16;65.94;100898.59;5070824;28;20490;-78
2023/09/19 05:45:40;;;;;;;0.10;0.10;;;;;;;16.27;65.87;100899.94;5068054;28;20078;-76
2023/09/19 05:48:11;;;;;;;0.45;0.32;;;;;;;16.32;65.72;100893.47;5068255;28;20749;-76
2023/09/19 05:50:38;;;;;;;0.10;0.10;;;;;;;16.25;65.96;100907.13;5070680;28;20032;-76
2023/09/19 05:53:04;;;;;;;0.10;0.10;;;;;;;16.27;66.22;100915.97;5069461;28;20043;-76
2023/09/19 05:55:32;;;;;;;0.10;0.10;;;;;;;16.10;66.79;100912.22;5076818;28;20058;-76
2023/09/19 05:57:58;;;;;;;0.10;0.10;;;;;;;16.23;66.71;100920.56;5075877;28;20032;-75
2023/09/19 06:00:27;;;;;;;0.38;0.38;;;;;;;16.22;66.98;100920.66;5060120;28;20055;-75
2023/09/19 06:02:55;;;;;;;0.10;0.10;;;;;;;16.20;66.96;100920.72;5063049;28;20055;-76
2023/09/19 06:05:22;;;;;;;0.10;0.10;;;;;;;16.33;66.84;100921.06;5066923;28;20552;-76
2023/09/19 06:07:50;;;;;;;0.10;0.10;;;;;;;16.30;66.93;100918.53;5066194;28;20032;-76
2023/09/19 06:10:17;;;;;;;0.10;0.10;;;;;;;16.40;66.64;100922.53;5064292;28;20021;-76
2023/09/19 06:12:44;;;;;;;0.10;0.10;;;;;;;16.35;67.15;100927.22;5071047;28;20032;-76
2023/09/19 06:15:15;;;;;;;0.10;0.10;;;;;;;16.34;66.84;100933.50;5067939;28;20090;-76
2023/09/19 06:17:46;;;;;;;0.10;0.10;;;;;;;16.46;66.73;100932.09;5072794;28;20028;-75
2023/09/19 06:20:15;;;;;;;1.85;1.75;;;;;;;16.46;66.58;100926.72;5070856;28;20031;-76
2023/09/19 06:22:42;;;;;;;0.25;0.25;;;;;;;16.47;67.08;100934.72;5069293;28;20055;-75
2023/09/19 06:25:11;;;;;;;0.10;0.10;;;;;;;16.42;67.07;100942.03;5073448;28;20389;-76
2023/09/19 06:27:41;;;;;;;0.20;0.20;;;;;;;16.61;66.72;100919.84;5070188;28;20056;-75
2023/09/19 06:30:08;;;;;;;1.30;1.13;;;;;;;16.58;66.58;100923.53;5073519;28;20119;-74
2023/09/19 06:32:34;;;;;;;0.10;0.10;;;;;;;16.66;66.42;100913.38;5070281;28;20166;-74
2023/09/19 06:35:00;;;;;;;0.10;0.10;;;;;;;16.70;66.46;100916.78;5069898;28;20074;-75
2023/09/19 06:37:29;;;;;;;1.10;1.10;;;;;;;16.73;66.67;100924.66;5076240;28;20756;-77
2023/09/19 06:39:56;;;;;;;0.10;0.10;;;;;;;16.81;66.34;100927.00;5082072;28;20028;-77
2023/09/19 06:42:23;;;;;;;0.10;0.10;;;;;;;16.88;66.49;100927.59;5084259;28;20537;-76
2023/09/19 06:44:49;;;;;;;0.10;0.10;;;;;;;16.82;66.79;100934.97;5071701;28;20032;-76
2023/09/19 06:47:16;;;;;;;0.10;0.10;;;;;;;16.87;66.51;100933.88;5072607;28;20121;-76
2023/09/19 06:49:45;;;;;;;0.10;0.10;;;;;;;16.86;66.98;100929.47;5071295;28;20028;-76
2023/09/19 06:52:11;;;;;;;0.30;0.30;;;;;;;16.89;66.73;100929.34;5075011;28;20032;-75
2023/09/19 06:54:37;;;;;;;2.13;0.98;;;;;;;16.92;66.80;100923.88;5080061;28;20114;-76
2023/09/19 06:57:04;;;;;;;0.00;0.00;;;;;;;16.95;66.82;100929.09;5086486;28;20070;-74
2023/09/19 06:59:32;;;;;;;1.08;0.40;;;;;;;16.92;66.72;100929.22;5078550;28;20111;-76
2023/09/19 07:01:59;;;;;;;0.10;0.10;;;;;;;17.06;66.44;100937.50;5069261;28;20507;-76
2023/09/19 07:04:25;;;;;;;0.52;0.52;;;;;;;17.00;66.70;100940.44;5070772;28;20052;-77
2023/09/19 07:06:51;;;;;;;0.95;0.95;;;;;;;17.00;66.40;100939.56;5073151;28;20116;-75
2023/09/19 07:09:19;;;;;;;0.00;0.00;;;;;;;17.12;66.33;100939.00;5077913;28;20081;-75
2023/09/19 07:11:47;;;;;;;0.30;0.30;;;;;;;17.16;66.50;100937.94;5079366;28;20508;-78
2023/09/19 07:14:13;;;;;;;0.10;0.10;;;;;;;17.09;66.54;100942.69;5083496;28;20691;-79
2023/09/19 07:16:42;;;;;;;0.10;0.10;;;;;;;17.06;66.32;100941.97;5071102;28;20595;-77
2023/09/19 07:19:08;;;;;;;1.75;1.45;;;;;;;17.29;65.85;100948.94;5070284;28;20515;-75
2023/09/19 07:21:35;;;;;;;0.10;0.10;;;;;;;17.21;66.18;100946.63;5067881;28;20020;-75
2023/09/19 07:24:03;;;;;;;0.10;0.10;;;;;;;17.19;66.11;100947.66;5068858;28;20132;-76
2023/09/19 07:26:30;;;;;;;0.30;0.30;;;;;;;17.21;66.16;100948.41;5067858;28;20073;-76
2023/09/19 07:28:57;;;;;;;0.10;0.10;;;;;;;17.40;65.72;100946.63;5068014;28;20044;-76
2023/09/19 07:31:25;;;;;;;0.22;0.22;;;;;;;17.33;65.55;100945.19;5064136;28;20045;-76
2023/09/19 07:33:51;;;;;;;0.75;0.75;;;;;;;17.44;65.67;100950.91;5073888;28;20044;-77
2023/09/19 07:36:17;;;;;;;0.10;0.10;;;;;;;17.40;65.41;100952.00;5068433;28;20031;-76
2023/09/19 07:38:43;;;;;;;0.10;0.10;;;;;;;17.54;65.74;100953.16;5068997;28;20043;-76
2023/09/19 07:41:09;;;;;;;0.28;0.28;;;;;;;17.59;65.75;100949.28;5086887;28;20024;-75
2023/09/19 07:43:38;;;;;;;3.20;0.57;;;;;;;17.70;65.64;100951.47;5070824;28;20387;-76
2023/09/19 07:46:07;;;;;;;0.05;0.05;;;;;;;17.77;65.45;100950.25;5071526;28;20410;-75
2023/09/19 07:48:35;;;;;;;1.25;1.15;;;;;;;17.83;65.42;100958.91;5079289;28;20086;-76
2023/09/19 07:51:04;;;;;;;1.90;0.32;;;;;;;18.00;64.97;100955.47;5071080;28;20039;-74
2023/09/19 07:53:30;;;;;;;0.10;0.10;;;;;;;17.71;64.77;100955.03;5071505;28;20040;-76
2023/09/19 07:56:23;;;;;;;0.17;0.17;;;;;;;17.92;64.97;100958.50;5065424;28;20036;-76
2023/09/19 07:58:49;;;;;;;;;;;;;;;18.06;64.44;100949.78;5059912;28;20036;-76
2023/09/19 08:01:16;;;;;;;0.03;0.03;;;;;;;17.88;64.86;100948.84;5069780;28;20002;-76
2023/09/19 08:03:43;;;;;;;0.10;0.10;;;;;;;18.00;65.13;100953.63;5082799;28;20104;-77
2023/09/19 08:06:10;;;;;;;0.10;0.10;;;;;;;18.10;65.05;100952.22;5069501;28;20052;-76
2023/09/19 08:08:37;;;;;;;2.50;2.30;;;;;;;18.13;65.17;100958.38;5069525;28;20082;-76
2023/09/19 08:11:12;;;;;;;0.20;0.20;;;;;;;18.16;64.56;100945.69;5068211;28;20516;-77
2023/09/19 08:13:43;;;;;;;0.10;0.10;;;;;;;18.22;64.70;100953.44;5070332;28;20154;-77
2023/09/19 08:16:10;;;;;;;0.03;0.03;;;;;;;18.16;64.35;100940.34;5068855;28;20024;-77
2023/09/19 08:18:39;;;;;;;0.00;0.00;;;;;;;18.28;64.31;100944.22;5071492;28;20032;-78
2023/09/19 08:21:10;;;;;;;0.25;0.25;;;;;;;18.42;64.33;100939.00;5073189;28;20107;-77
2023/09/19 08:23:38;;;;;;;0.13;0.13;;;;;;;18.51;64.64;100928.75;5072383;28;20119;-77
2023/09/19 08:26:07;;;;;;;0.10;0.10;;;;;;;18.54;63.72;100944.69;5070690;28;20396;-77
2023/09/19 08:28:34;;;;;;;0.20;0.20;;;;;;;18.64;63.85;100935.22;5072171;28;20029;-77
2023/09/19 08:31:04;;;;;;;0.20;0.20;;;;;;;18.71;63.24;100925.88;5067060;28;20035;-77
2023/09/19 08:33:33;;;;;;;0.10;0.10;;;;;;;18.67;62.65;100932.34;5071594;28;20036;-77
2023/09/19 08:35:59;;;;;;;0.47;0.47;;;;;;;18.67;62.82;100937.72;5071678;28;20020;-75
2023/09/19 08:38:29;;;;;;;0.30;0.30;;;;;;;18.76;62.05;100939.06;5071330;28;20111;-76
2023/09/19 08:41:01;;;;;;;0.05;0.05;;;;;;;18.74;61.67;100932.91;5064742;28;20465;-77
2023/09/19 08:43:27;;;;;;;3.97;1.20;;;;;;;18.82;61.23;100937.88;5071691;28;20115;-76
2023/09/19 08:46:10;;;;;;;0.68;0.68;;;;;;;19.01;60.74;100930.59;5070099;28;20290;-75
2023/09/19 08:48:44;;;;;;;0.30;0.30;;;;;;;18.74;61.59;100928.41;5068864;28;20395;-77
2023/09/19 08:51:25;;;;;;;0.28;0.28;;;;;;;19.04;61.66;100922.38;5070523;28;20367;-77
2023/09/19 08:54:15;;;;;;;0.43;0.43;;;;;;;18.98;61.25;100932.56;5086626;28;20031;-77
2023/09/19 08:56:43;;;;;;;0.10;0.10;;;;;;;19.00;61.22;100936.03;5071951;28;20905;-77
2023/09/19 08:59:15;;;;;;;0.05;0.05;;;;;;;19.07;61.42;100916.81;5067693;28;20040;-76
2023/09/19 09:01:42;;;;;;;0.30;0.30;;;;;;;19.15;61.04;100923.59;5063010;28;20035;-74
2023/09/19 09:04:12;;;;;;;0.10;0.10;;;;;;;19.02;61.06;100918.03;5069529;28;20031;-77
2023/09/19 09:06:40;;;;;;;4.65;0.65;;;;;;;19.08;60.68;100923.09;5080357;28;20024;-78
2023/09/19 09:09:07;;;;;;;3.85;3.22;;;;;;;19.15;60.87;100934.34;5075767;28;20025;-77
2023/09/19 09:11:33;;;;;;;0.00;0.00;;;;;;;19.06;60.41;100941.09;5072479;28;20399;-77
2023/09/19 09:14:00;;;;;;;0.45;0.45;;;;;;;19.12;60.52;100934.53;5067298;28;20040;-77
2023/09/19 09:16:26;;;;;;;0.47;0.47;;;;;;;19.02;60.11;100937.69;5069073;28;20029;-77
2023/09/19 09:18:54;;;;;;;0.10;0.10;;;;;;;19.15;59.88;100923.59;5080072;28;20032;-77
2023/09/19 09:21:21;;;;;;;0.25;0.25;;;;;;;19.37;59.51;100940.25;5071083;28;20421;-77
2023/09/19 09:23:51;;;;;;;0.05;0.05;;;;;;;19.22;59.40;100931.22;5078275;28;20024;-78
2023/09/19 09:26:19;;;;;;;0.10;0.10;;;;;;;19.31;59.78;100935.22;5070082;28;20020;-78
2023/09/19 09:28:48;;;;;;;0.17;0.17;;;;;;;19.35;59.11;100933.25;5070464;28;20039;-77
2023/09/19 09:31:24;;;;;;;0.00;0.00;;;;;;;19.64;59.02;100931.63;5071842;28;20024;-77
2023/09/19 09:33:55;;;;;;;0.05;0.05;;;;;;;19.66;58.51;100929.69;5071784;28;20032;-76
2023/09/19 09:36:41;;;;;;;0.10;0.10;;;;;;;19.83;58.13;100927.91;5069797;28;20059;-77
2023/09/19 09:39:18;;;;;;;1.75;1.45;;;;;;;19.71;58.22;100930.31;5068043;28;20287;-78
2023/09/19 09:41:45;;;;;;;0.80;0.63;;;;;;;19.65;57.72;100927.09;5072714;28;20044;-77
2023/09/19 09:44:15;;;;;;;1.08;0.63;;;;;;;19.59;58.18;100936.41;5069786;28;20028;-77
2023/09/19 09:47:27;;;;;;;0.20;0.20;;;;;;;19.55;58.43;100930.31;5074786;28;20054;-77
2023/09/19 09:52:16;;;;;;;0.10;0.10;;;;;;;19.80;58.16;100914.59;5055872;27;20372;-75
2023/09/19 09:55:07;;;;;;;0.43;0.43;;;;;;;20.09;57.35;100914.75;5067174;28;20039;-77
2023/09/19 09:57:34;;;;;;;0.10;0.10;;;;;;;19.99;57.38;100912.59;5068372;28;20041;-78
2023/09/19 10:00:20;;;;;;;0.10;0.10;;;;;;;20.15;57.22;100914.38;5062100;28;20025;-78
2023/09/19 10:02:46;;;;;;;0.10;0.10;;;;;;;20.30;57.13;100908.09;5066938;28;20028;-78
2023/09/19 10:07:53;;;;;;;0.10;0.10;;;;;;;20.26;56.54;100908.38;5092255;27;20336;-78
2023/09/19 10:13:14;;;;;;;0.10;0.10;;;;;;;20.58;56.99;100894.81;5103280;27;20409;-78
2023/09/19 10:15:48;;;;;;;0.10;0.10;;;;;;;20.41;56.31;100909.28;5102182;28;20024;-78
2023/09/19 10:18:18;;;;;;;0.10;0.10;;;;;;;20.65;56.28;100894.31;5087799;28;20489;-78
2023/09/19 10:20:45;;;;;;;14.90;3.63;;;;;;;20.73;56.41;100887.63;5086853;28;20042;-81
2023/09/19 10:23:13;;;;;;;0.10;0.10;;;;;;;20.70;56.40;100888.66;5091576;28;20445;-79
2023/09/19 10:25:42;;;;;;;0.35;0.35;;;;;;;20.76;55.88;100877.53;5086786;28;20032;-79
2023/09/19 10:28:11;;;;;;;0.00;0.00;;;;;;;20.89;54.92;100884.84;5078995;28;20098;-78
2023/09/19 10:30:44;;;;;;;0.50;0.50;;;;;;;20.91;55.58;100878.41;5091011;28;20048;-78
2023/09/19 10:33:11;;;;;;;0.10;0.10;;;;;;;21.05;55.60;100872.16;5087687;28;20398;-76
2023/09/19 10:35:41;;;;;;;0.10;0.10;;;;;;;20.91;55.09;100867.63;5088118;28;20081;-76
2023/09/19 10:38:10;;;;;;;0.13;0.13;;;;;;;20.83;55.80;100869.94;5084389;28;20028;-76
2023/09/19 10:40:42;;;;;;;0.10;0.10;;;;;;;20.99;55.77;100870.69;5081420;28;20166;-77
2023/09/19 10:43:12;;;;;;;;;;;;;;;21.03;54.84;100857.03;5083841;28;20032;-77
2023/09/19 10:45:41;;;;;;;0.10;0.10;;;;;;;20.92;55.97;100855.91;5088908;28;19915;-78
2023/09/19 10:48:07;;;;;;;0.10;0.10;;;;;;;21.02;55.80;100864.25;5085070;28;20135;-78
2023/09/19 10:50:59;;;;;;;0.10;0.10;;;;;;;21.13;54.60;100860.88;5073310;28;20066;-77
2023/09/19 10:53:28;;;;;;;0.10;0.10;;;;;;;21.39;54.32;100847.53;5081507;28;20033;-78
2023/09/19 10:55:59;;;;;;;0.10;0.10;;;;;;;21.00;53.79;100864.34;5078099;28;20086;-78
2023/09/19 10:58:29;;;;;;;1.13;0.75;;;;;;;21.03;53.73;100863.28;5078009;28;20031;-78
2023/09/19 11:01:05;;;;;;;0.20;0.20;;;;;;;20.96;54.83;100857.44;5071813;28;20043;-79
2023/09/19 11:03:32;;;;;;;0.10;0.10;;;;;;;21.00;54.48;100858.97;5076495;28;20028;-78
2023/09/19 11:06:04;;;;;;;2.65;0.80;;;;;;;21.32;53.69;100847.94;5081959;28;20385;-77
2023/09/19 11:08:51;;;;;;;;;;;;;;;21.46;53.42;100854.28;5088425;28;20371;-78
2023/09/19 11:14:30;;;;;;;0.13;0.13;;;;;;;21.40;52.62;100838.50;5095222;27;20396;-78
2023/09/19 11:23:22;;;;;;;0.00;0.00;;;;;;;21.33;52.99;100841.59;5100968;27;20392;-78
2023/09/19 11:25:49;;;;;;;0.10;0.10;;;;;;;21.32;53.40;100842.56;5094403;28;20035;-78
2023/09/19 11:30:54;;;;;;;0.10;0.10;;;;;;;21.29;52.94;100815.78;5087976;27;20420;-78
2023/09/19 11:36:05;;;;;;;0.03;0.03;;;;;;;21.31;53.12;100832.72;5101438;27;20925;-77
2023/09/19 11:49:32;;;;;;;0.57;0.57;;;;;;;20.94;54.28;100827.03;5064784;27;20430;-78
2023/09/19 11:52:01;;;;;;;0.10;0.10;;;;;;;20.68;54.20;100834.88;5059123;27;20032;-76
2023/09/19 11:54:31;;;;;;;0.10;0.10;;;;;;;20.92;54.37;100828.97;5053150;28;20029;-76
2023/09/19 11:56:58;;;;;;;0.25;0.25;;;;;;;20.73;54.87;100825.72;5057823;27;20032;-77
2023/09/19 12:02:08;;;;;;;0.10;0.10;;;;;;;20.75;54.99;100837.22;5108085;27;20109;-76
2023/09/19 12:04:37;;;;;;;0.10;0.10;;;;;;;20.79;55.08;100828.03;5109158;28;20072;-76
2023/09/19 12:07:10;;;;;;;0.10;0.10;;;;;;;20.79;54.80;100830.72;5090842;28;20038;-77
2023/09/19 12:09:40;;;;;;;0.30;0.30;;;;;;;20.83;54.76;100841.16;5099572;28;20028;-76
2023/09/19 12:12:06;;;;;;;0.10;0.10;;;;;;;20.77;54.82;100836.22;5088575;28;20052;-77
2023/09/19 12:14:33;;;;;;;0.10;0.10;;;;;;;20.76;55.17;100838.97;5088176;28;20378;-76